sensor_id;sensor_type;location;lat;lon;timestamp;pressure;altitude;pressure_sealevel;temperature;humidity
24440;BME280;12618;54.386;18.394;2023-04-02T00:01:39;99284.45;;;0.88;100.00
24440;BME280;12618;54.386;18.394;2023-04-02T00:04:16;99292.38;;;0.90;100.00
24440;BME280;12618;54.386;18.394;2023-04-02T00:06:55;99298.94;;;0.91;100.00
24440;BME280;12618;54.386;18.394;2023-04-02T00:09:46;99297.88;;;0.92;100.00
24440;BME280;12618;54.386;18.394;2023-04-02T00:12:18;99295.63;;;0.93;100.00
24440;BME280;12618;54.386;18.394;2023-04-02T00:14:53;99297.34;;;0.94;100.00
24440;BME280;12618;54.386;18.394;2023-04-02T00:17:25;99297.02;;;0.93;100.00
24440;BME280;12618;54.386;18.394;2023-04-02T00:19:59;99294.45;;;0.90;100.00
24440;BME280;12618;54.386;18.394;2023-04-02T00:22:34;99303.93;;;0.93;100.00
24440;BME280;12618;54.386;18.394;2023-04-02T00:25:14;99304.45;;;0.94;100.00
24440;BME280;12618;54.386;18.394;2023-04-02T00:27:46;99310.16;;;0.94;100.00
24440;BME280;12618;54.386;18.394;2023-04-02T00:30:18;99311.89;;;0.94;100.00
24440;BME280;12618;54.386;18.394;2023-04-02T00:32:50;99318.80;;;0.96;100.00
24440;BME280;12618;54.386;18.394;2023-04-02T00:35:25;99320.68;;;0.97;100.00
24440;BME280;12618;54.386;18.394;2023-04-02T00:37:58;99315.14;;;0.97;100.00
24440;BME280;12618;54.386;18.394;2023-04-02T00:40:30;99320.15;;;0.98;100.00
24440;BME280;12618;54.386;18.394;2023-04-02T00:43:05;99321.86;;;0.99;100.00
24440;BME280;12618;54.386;18.394;2023-04-02T00:45:37;99325.46;;;1.00;100.00
24440;BME280;12618;54.386;18.394;2023-04-02T00:48:22;99326.48;;;1.01;100.00
24440;BME280;12618;54.386;18.394;2023-04-02T00:51:09;99328.02;;;1.03;100.00
24440;BME280;12618;54.386;18.394;2023-04-02T00:53:44;99330.79;;;1.03;100.00
24440;BME280;12618;54.386;18.394;2023-04-02T00:56:26;99331.48;;;1.04;100.00
24440;BME280;12618;54.386;18.394;2023-04-02T00:58:59;99330.77;;;1.05;100.00
24440;BME280;12618;54.386;18.394;2023-04-02T01:01:35;99334.58;;;1.05;100.00
24440;BME280;12618;54.386;18.394;2023-04-02T01:04:25;99340.80;;;1.07;100.00
24440;BME280;12618;54.386;18.394;2023-04-02T01:07:00;99345.48;;;1.06;100.00
24440;BME280;12618;54.386;18.394;2023-04-02T01:12:38;99356.83;;;1.00;100.00
24440;BME280;12618;54.386;18.394;2023-04-02T01:15:18;99352.70;;;0.99;100.00
24440;BME280;12618;54.386;18.394;2023-04-02T01:29:12;99357.84;;;1.01;100.00
24440;BME280;12618;54.386;18.394;2023-04-02T01:31:46;99358.34;;;1.03;100.00
24440;BME280;12618;54.386;18.394;2023-04-02T01:34:21;99362.32;;;1.03;100.00
24440;BME280;12618;54.386;18.394;2023-04-02T01:39:31;99371.45;;;1.08;100.00
24440;BME280;12618;54.386;18.394;2023-04-02T01:44:58;99376.23;;;1.11;100.00
24440;BME280;12618;54.386;18.394;2023-04-02T01:47:31;99375.52;;;1.12;100.00
24440;BME280;12618;54.386;18.394;2023-04-02T01:52:53;99387.60;;;1.16;100.00
24440;BME280;12618;54.386;18.394;2023-04-02T01:55:48;99394.86;;;1.18;100.00
24440;BME280;12618;54.386;18.394;2023-04-02T01:58:26;99392.95;;;1.18;100.00
24440;BME280;12618;54.386;18.394;2023-04-02T02:01:06;99397.61;;;1.19;100.00
24440;BME280;12618;54.386;18.394;2023-04-02T02:03:42;99397.95;;;1.19;100.00
24440;BME280;12618;54.386;18.394;2023-04-02T02:06:16;99401.94;;;1.19;100.00
24440;BME280;12618;54.386;18.394;2023-04-02T02:08:53;99402.63;;;1.20;100.00
24440;BME280;12618;54.386;18.394;2023-04-02T02:11:28;99405.40;;;1.20;100.00
24440;BME280;12618;54.386;18.394;2023-04-02T02:14:05;99409.89;;;1.21;100.00
24440;BME280;12618;54.386;18.394;2023-04-02T02:16:42;99411.42;;;1.21;100.00
24440;BME280;12618;54.386;18.394;2023-04-02T02:22:06;99422.83;;;1.23;100.00
24440;BME280;12618;54.386;18.394;2023-04-02T02:24:40;99421.80;;;1.23;100.00
24440;BME280;12618;54.386;18.394;2023-04-02T02:29:57;99426.98;;;1.23;100.00
24440;BME280;12618;54.386;18.394;2023-04-02T02:32:32;99433.91;;;1.24;100.00
24440;BME280;12618;54.386;18.394;2023-04-02T02:35:39;99435.83;;;1.24;100.00
24440;BME280;12618;54.386;18.394;2023-04-02T02:38:28;99437.00;;;1.26;100.00
24440;BME280;12618;54.386;18.394;2023-04-02T02:43:52;99441.83;;;1.28;100.00
24440;BME280;12618;54.386;18.394;2023-04-02T02:46:28;99436.64;;;1.28;100.00
24440;BME280;12618;54.386;18.394;2023-04-02T02:49:02;99442.52;;;1.29;100.00
24440;BME280;12618;54.386;18.394;2023-04-02T02:51:43;99446.48;;;1.29;100.00
24440;BME280;12618;54.386;18.394;2023-04-02T02:54:16;99448.91;;;1.30;100.00
24440;BME280;12618;54.386;18.394;2023-04-02T02:56:54;99452.04;;;1.30;100.00
24440;BME280;12618;54.386;18.394;2023-04-02T02:59:29;99454.27;;;1.31;100.00
24440;BME280;12618;54.386;18.394;2023-04-02T03:02:03;99451.30;;;1.32;100.00
24440;BME280;12618;54.386;18.394;2023-04-02T03:04:36;99460.80;;;1.34;100.00
24440;BME280;12618;54.386;18.394;2023-04-02T03:07:09;99464.61;;;1.34;100.00
24440;BME280;12618;54.386;18.394;2023-04-02T03:09:50;99466.51;;;1.34;100.00
24440;BME280;12618;54.386;18.394;2023-04-02T03:12:44;99470.65;;;1.35;100.00
24440;BME280;12618;54.386;18.394;2023-04-02T03:15:31;99469.79;;;1.36;100.00
24440;BME280;12618;54.386;18.394;2023-04-02T03:21:17;99481.89;;;1.38;100.00
24440;BME280;12618;54.386;18.394;2023-04-02T03:24:04;99484.65;;;1.40;100.00
24440;BME280;12618;54.386;18.394;2023-04-02T03:26:43;99487.06;;;1.40;100.00
24440;BME280;12618;54.386;18.394;2023-04-02T03:29:21;99496.57;;;1.42;100.00
24440;BME280;12618;54.386;18.394;2023-04-02T03:31:59;99490.51;;;1.42;100.00
24440;BME280;12618;54.386;18.394;2023-04-02T03:34:48;99496.75;;;1.42;100.00
24440;BME280;12618;54.386;18.394;2023-04-02T03:37:34;99501.09;;;1.42;100.00
24440;BME280;12618;54.386;18.394;2023-04-02T03:40:23;99502.83;;;1.42;100.00
24440;BME280;12618;54.386;18.394;2023-04-02T03:43:23;99512.70;;;1.42;100.00
24440;BME280;12618;54.386;18.394;2023-04-02T03:46:02;99516.33;;;1.42;100.00
24440;BME280;12618;54.386;18.394;2023-04-02T03:48:40;99519.79;;;1.43;100.00
24440;BME280;12618;54.386;18.394;2023-04-02T03:51:22;99522.04;;;1.43;100.00
24440;BME280;12618;54.386;18.394;2023-04-02T03:53:56;99528.62;;;1.43;100.00
24440;BME280;12618;54.386;18.394;2023-04-02T03:56:30;99531.55;;;1.44;100.00
24440;BME280;12618;54.386;18.394;2023-04-02T04:03:18;99543.80;;;1.48;100.00
24440;BME280;12618;54.386;18.394;2023-04-02T04:05:56;99550.58;;;1.47;100.00
24440;BME280;12618;54.386;18.394;2023-04-02T04:08:34;99554.22;;;1.46;100.00
24440;BME280;12618;54.386;18.394;2023-04-02T04:11:15;99559.92;;;1.48;100.00
24440;BME280;12618;54.386;18.394;2023-04-02T04:14:17;99565.99;;;1.49;100.00
24440;BME280;12618;54.386;18.394;2023-04-02T04:19:51;99579.17;;;1.48;100.00
24440;BME280;12618;54.386;18.394;2023-04-02T04:22:27;99584.20;;;1.48;100.00
24440;BME280;12618;54.386;18.394;2023-04-02T04:25:14;99585.94;;;1.47;100.00
24440;BME280;12618;54.386;18.394;2023-04-02T04:28:09;99594.61;;;1.47;100.00
24440;BME280;12618;54.386;18.394;2023-04-02T04:30:59;99597.21;;;1.47;100.00
24440;BME280;12618;54.386;18.394;2023-04-02T04:33:40;99599.30;;;1.46;100.00
24440;BME280;12618;54.386;18.394;2023-04-02T04:36:36;99600.98;;;1.50;100.00
24440;BME280;12618;54.386;18.394;2023-04-02T04:39:15;99609.34;;;1.48;100.00
24440;BME280;12618;54.386;18.394;2023-04-02T04:41:50;99607.77;;;1.48;100.00
24440;BME280;12618;54.386;18.394;2023-04-02T04:47:10;99609.17;;;1.48;100.00
24440;BME280;12618;54.386;18.394;2023-04-02T04:49:54;99615.56;;;1.50;100.00
24440;BME280;12618;54.386;18.394;2023-04-02T04:52:36;99618.52;;;1.49;100.00
24440;BME280;12618;54.386;18.394;2023-04-02T04:55:36;99627.17;;;1.51;100.00
24440;BME280;12618;54.386;18.394;2023-04-02T04:58:18;99630.46;;;1.52;100.00
24440;BME280;12618;54.386;18.394;2023-04-02T05:03:46;99629.23;;;1.53;100.00
24440;BME280;12618;54.386;18.394;2023-04-02T05:06:38;99635.77;;;1.55;100.00
24440;BME280;12618;54.386;18.394;2023-04-02T05:09:19;99638.90;;;1.55;100.00
24440;BME280;12618;54.386;18.394;2023-04-02T05:17:28;99652.73;;;1.58;100.00
24440;BME280;12618;54.386;18.394;2023-04-02T05:22:44;99663.64;;;1.60;100.00
24440;BME280;12618;54.386;18.394;2023-04-02T05:25:23;99664.50;;;1.60;100.00
24440;BME280;12618;54.386;18.394;2023-04-02T05:31:04;99672.27;;;1.63;100.00
24440;BME280;12618;54.386;18.394;2023-04-02T05:33:35;99678.34;;;1.64;100.00
24440;BME280;12618;54.386;18.394;2023-04-02T05:36:18;99684.89;;;1.66;100.00
24440;BME280;12618;54.386;18.394;2023-04-02T05:38:52;99687.98;;;1.66;100.00
24440;BME280;12618;54.386;18.394;2023-04-02T05:44:13;99695.26;;;1.68;100.00
24440;BME280;12618;54.386;18.394;2023-04-02T05:46:54;99700.78;;;1.70;100.00
24440;BME280;12618;54.386;18.394;2023-04-02T05:52:31;99707.20;;;1.70;100.00
24440;BME280;12618;54.386;18.394;2023-04-02T05:57:51;99716.22;;;1.70;100.00
24440;BME280;12618;54.386;18.394;2023-04-02T06:00:56;99719.16;;;1.71;100.00
24440;BME280;12618;54.386;18.394;2023-04-02T06:03:41;99718.98;;;1.71;100.00
24440;BME280;12618;54.386;18.394;2023-04-02T06:06:24;99728.34;;;1.73;100.00
24440;BME280;12618;54.386;18.394;2023-04-02T06:09:02;99723.27;;;1.76;100.00
24440;BME280;12618;54.386;18.394;2023-04-02T06:11:41;99734.33;;;1.79;100.00
24440;BME280;12618;54.386;18.394;2023-04-02T06:14:16;99736.02;;;1.82;100.00
24440;BME280;12618;54.386;18.394;2023-04-02T06:16:53;99738.77;;;1.86;100.00
24440;BME280;12618;54.386;18.394;2023-04-02T06:19:29;99738.55;;;1.88;100.00
24440;BME280;12618;54.386;18.394;2023-04-02T06:22:15;99746.31;;;1.91;100.00
24440;BME280;12618;54.386;18.394;2023-04-02T06:24:55;99744.73;;;1.95;100.00
24440;BME280;12618;54.386;18.394;2023-04-02T06:27:29;99749.73;;;1.98;100.00
24440;BME280;12618;54.386;18.394;2023-04-02T06:30:04;99752.27;;;2.00;100.00
24440;BME280;12618;54.386;18.394;2023-04-02T06:32:36;99753.98;;;2.03;100.00
24440;BME280;12618;54.386;18.394;2023-04-02T06:35:17;99765.75;;;2.05;100.00
24440;BME280;12618;54.386;18.394;2023-04-02T06:37:52;99762.77;;;2.08;100.00
24440;BME280;12618;54.386;18.394;2023-04-02T06:40:38;99768.95;;;2.12;100.00
24440;BME280;12618;54.386;18.394;2023-04-02T06:43:26;99777.77;;;2.16;100.00
24440;BME280;12618;54.386;18.394;2023-04-02T06:46:15;99782.42;;;2.19;100.00
24440;BME280;12618;54.386;18.394;2023-04-02T06:48:52;99788.61;;;2.22;100.00
24440;BME280;12618;54.386;18.394;2023-04-02T06:51:28;99788.79;;;2.23;100.00
24440;BME280;12618;54.386;18.394;2023-04-02T06:54:01;99797.09;;;2.25;100.00
24440;BME280;12618;54.386;18.394;2023-04-02T06:56:53;99800.02;;;2.26;100.00
24440;BME280;12618;54.386;18.394;2023-04-02T06:59:26;99808.33;;;2.30;100.00
24440;BME280;12618;54.386;18.394;2023-04-02T07:02:04;99810.36;;;2.33;100.00
24440;BME280;12618;54.386;18.394;2023-04-02T07:04:47;99821.59;;;2.37;100.00
24440;BME280;12618;54.386;18.394;2023-04-02T07:07:19;99824.17;;;2.39;100.00
24440;BME280;12618;54.386;18.394;2023-04-02T07:09:50;99828.98;;;2.43;100.00
24440;BME280;12618;54.386;18.394;2023-04-02T07:12:25;99833.98;;;2.58;100.00
24440;BME280;12618;54.386;18.394;2023-04-02T07:14:57;99833.51;;;2.79;100.00
24440;BME280;12618;54.386;18.394;2023-04-02T07:17:28;99832.70;;;2.98;100.00
24440;BME280;12618;54.386;18.394;2023-04-02T07:20:01;99840.34;;;3.21;100.00
24440;BME280;12618;54.386;18.394;2023-04-02T07:22:32;99841.71;;;3.32;100.00
24440;BME280;12618;54.386;18.394;2023-04-02T07:25:04;99846.86;;;3.26;100.00
24440;BME280;12618;54.386;18.394;2023-04-02T07:27:36;99860.15;;;3.22;100.00
24440;BME280;12618;54.386;18.394;2023-04-02T07:30:08;99860.77;;;3.36;100.00
24440;BME280;12618;54.386;18.394;2023-04-02T07:32:41;99864.02;;;3.51;100.00
24440;BME280;12618;54.386;18.394;2023-04-02T07:35:13;99868.22;;;3.60;100.00
24440;BME280;12618;54.386;18.394;2023-04-02T07:37:44;99871.70;;;4.07;100.00
24440;BME280;12618;54.386;18.394;2023-04-02T07:40:18;99869.11;;;4.33;100.00
24440;BME280;12618;54.386;18.394;2023-04-02T07:42:51;99874.21;;;4.29;100.00
24440;BME280;12618;54.386;18.394;2023-04-02T07:45:23;99884.11;;;4.14;100.00
24440;BME280;12618;54.386;18.394;2023-04-02T07:47:55;99888.89;;;4.01;100.00
24440;BME280;12618;54.386;18.394;2023-04-02T07:57:56;99906.30;;;3.50;100.00
24440;BME280;12618;54.386;18.394;2023-04-02T08:00:31;99910.84;;;3.48;100.00
24440;BME280;12618;54.386;18.394;2023-04-02T08:03:25;99916.21;;;3.50;100.00
24440;BME280;12618;54.386;18.394;2023-04-02T08:05:58;99923.29;;;3.43;100.00
24440;BME280;12618;54.386;18.394;2023-04-02T08:08:31;99928.63;;;3.46;100.00
24440;BME280;12618;54.386;18.394;2023-04-02T08:11:05;99930.52;;;3.48;100.00
24440;BME280;12618;54.386;18.394;2023-04-02T08:13:41;99936.58;;;3.49;100.00
24440;BME280;12618;54.386;18.394;2023-04-02T08:16:15;99936.90;;;3.51;100.00
24440;BME280;12618;54.386;18.394;2023-04-02T08:18:49;99930.58;;;3.55;100.00
24440;BME280;12618;54.386;18.394;2023-04-02T08:21:22;99940.39;;;3.61;100.00
24440;BME280;12618;54.386;18.394;2023-04-02T08:23:56;99945.60;;;3.72;100.00
24440;BME280;12618;54.386;18.394;2023-04-02T08:26:28;99952.55;;;3.83;100.00
24440;BME280;12618;54.386;18.394;2023-04-02T08:29:00;99951.67;;;3.94;100.00
24440;BME280;12618;54.386;18.394;2023-04-02T08:31:33;99958.73;;;3.98;100.00
24440;BME280;12618;54.386;18.394;2023-04-02T08:34:05;99960.48;;;4.08;100.00
24440;BME280;12618;54.386;18.394;2023-04-02T08:36:38;99970.77;;;4.17;100.00
24440;BME280;12618;54.386;18.394;2023-04-02T08:39:10;99977.87;;;4.19;99.20
24440;BME280;12618;54.386;18.394;2023-04-02T08:41:49;99979.06;;;4.21;98.97
24440;BME280;12618;54.386;18.394;2023-04-02T08:47:56;99973.66;;;4.58;99.57
24440;BME280;12618;54.386;18.394;2023-04-02T08:50:37;99977.20;;;4.82;98.51
24440;BME280;12618;54.386;18.394;2023-04-02T08:53:22;99978.51;;;4.94;97.71
24440;BME280;12618;54.386;18.394;2023-04-02T08:58:44;99988.39;;;4.80;96.44
24440;BME280;12618;54.386;18.394;2023-04-02T09:04:27;99999.34;;;5.07;94.75
24440;BME280;12618;54.386;18.394;2023-04-02T09:06:59;100007.67;;;5.00;92.91
24440;BME280;12618;54.386;18.394;2023-04-02T09:09:35;100011.79;;;4.95;94.05
24440;BME280;12618;54.386;18.394;2023-04-02T09:15:31;100016.95;;;5.07;88.82
24440;BME280;12618;54.386;18.394;2023-04-02T09:18:16;100023.99;;;4.86;87.10
24440;BME280;12618;54.386;18.394;2023-04-02T09:20:48;100038.60;;;4.97;88.83
24440;BME280;12618;54.386;18.394;2023-04-02T09:23:22;100027.35;;;5.10;90.01
24440;BME280;12618;54.386;18.394;2023-04-02T09:25:54;100044.23;;;5.21;88.74
24440;BME280;12618;54.386;18.394;2023-04-02T09:28:35;100046.50;;;5.03;86.63
24440;BME280;12618;54.386;18.394;2023-04-02T09:31:37;100047.13;;;5.24;91.32
24440;BME280;12618;54.386;18.394;2023-04-02T09:34:34;100053.37;;;5.50;88.08
24440;BME280;12618;54.386;18.394;2023-04-02T09:37:16;100065.90;;;5.44;84.88
24440;BME280;12618;54.386;18.394;2023-04-02T09:39:48;100055.81;;;5.42;87.82
24440;BME280;12618;54.386;18.394;2023-04-02T09:42:40;100063.16;;;5.58;90.27
24440;BME280;12618;54.386;18.394;2023-04-02T09:45:18;100060.94;;;5.55;86.64
24440;BME280;12618;54.386;18.394;2023-04-02T09:47:51;100071.28;;;5.61;89.19
24440;BME280;12618;54.386;18.394;2023-04-02T09:50:27;100075.48;;;5.69;90.23
24440;BME280;12618;54.386;18.394;2023-04-02T09:56:33;100085.26;;;5.52;85.44
24440;BME280;12618;54.386;18.394;2023-04-02T09:59:15;100089.08;;;5.53;85.04
24440;BME280;12618;54.386;18.394;2023-04-02T10:01:58;100097.31;;;5.60;85.41
24440;BME280;12618;54.386;18.394;2023-04-02T10:04:45;100096.70;;;5.64;84.86
24440;BME280;12618;54.386;18.394;2023-04-02T10:07:39;100101.95;;;5.71;84.62
24440;BME280;12618;54.386;18.394;2023-04-02T10:13:45;100112.45;;;5.85;80.49
24440;BME280;12618;54.386;18.394;2023-04-02T10:16:21;100122.77;;;5.70;80.17
24440;BME280;12618;54.386;18.394;2023-04-02T10:21:36;100124.38;;;5.75;80.71
24440;BME280;12618;54.386;18.394;2023-04-02T10:24:16;100143.58;;;5.75;76.10
24440;BME280;12618;54.386;18.394;2023-04-02T10:27:13;100136.02;;;5.77;77.58
24440;BME280;12618;54.386;18.394;2023-04-02T10:32:41;100152.89;;;5.48;71.65
24440;BME280;12618;54.386;18.394;2023-04-02T10:35:41;100153.90;;;5.41;72.69
24440;BME280;12618;54.386;18.394;2023-04-02T10:47:32;100164.38;;;5.50;73.94
24440;BME280;12618;54.386;18.394;2023-04-02T10:52:53;100180.95;;;5.66;73.85
24440;BME280;12618;54.386;18.394;2023-04-02T10:55:31;100179.88;;;5.67;73.33
24440;BME280;12618;54.386;18.394;2023-04-02T10:58:25;100192.10;;;5.51;69.60
24440;BME280;12618;54.386;18.394;2023-04-02T11:01:05;100189.37;;;5.48;73.46
24440;BME280;12618;54.386;18.394;2023-04-02T11:03:47;100193.20;;;5.66;74.56
24440;BME280;12618;54.386;18.394;2023-04-02T11:06:26;100198.79;;;5.74;74.57
24440;BME280;12618;54.386;18.394;2023-04-02T11:09:03;100196.55;;;5.81;72.20
24440;BME280;12618;54.386;18.394;2023-04-02T11:11:40;100207.91;;;5.63;70.99
24440;BME280;12618;54.386;18.394;2023-04-02T11:16:48;100219.45;;;5.53;70.61
24440;BME280;12618;54.386;18.394;2023-04-02T11:19:24;100223.08;;;5.64;71.68
24440;BME280;12618;54.386;18.394;2023-04-02T11:22:00;100232.25;;;5.68;70.45
24440;BME280;12618;54.386;18.394;2023-04-02T11:24:42;100229.71;;;5.73;70.07
24440;BME280;12618;54.386;18.394;2023-04-02T11:27:15;100232.40;;;5.87;71.55
24440;BME280;12618;54.386;18.394;2023-04-02T11:30:24;100238.02;;;5.87;68.54
24440;BME280;12618;54.386;18.394;2023-04-02T11:33:49;100237.05;;;5.64;67.15
24440;BME280;12618;54.386;18.394;2023-04-02T11:39:49;100250.92;;;5.68;68.33
24440;BME280;12618;54.386;18.394;2023-04-02T11:42:30;100255.09;;;5.70;68.25
24440;BME280;12618;54.386;18.394;2023-04-02T11:55:45;100278.61;;;5.53;67.29
24440;BME280;12618;54.386;18.394;2023-04-02T12:07:19;100287.65;;;5.94;67.78
24440;BME280;12618;54.386;18.394;2023-04-02T12:10:01;100292.40;;;5.92;67.90
24440;BME280;12618;54.386;18.394;2023-04-02T12:12:36;100315.74;;;5.75;66.94
24440;BME280;12618;54.386;18.394;2023-04-02T12:15:30;100309.38;;;5.71;67.14
24440;BME280;12618;54.386;18.394;2023-04-02T12:20:37;100310.15;;;5.86;68.82
24440;BME280;12618;54.386;18.394;2023-04-02T12:23:18;100320.55;;;5.91;66.73
24440;BME280;12618;54.386;18.394;2023-04-02T12:28:34;100330.41;;;5.85;67.23
24440;BME280;12618;54.386;18.394;2023-04-02T12:33:41;100338.21;;;5.78;65.63
24440;BME280;12618;54.386;18.394;2023-04-02T12:38:53;100338.80;;;5.74;67.06
24440;BME280;12618;54.386;18.394;2023-04-02T12:41:31;100336.41;;;5.82;66.64
24440;BME280;12618;54.386;18.394;2023-04-02T12:44:05;100329.64;;;5.89;68.41
24440;BME280;12618;54.386;18.394;2023-04-02T12:46:43;100330.46;;;5.94;68.35
24440;BME280;12618;54.386;18.394;2023-04-02T12:49:39;100342.58;;;5.78;66.51
24440;BME280;12618;54.386;18.394;2023-04-02T12:52:17;100348.02;;;5.58;65.96
24440;BME280;12618;54.386;18.394;2023-04-02T12:54:54;100356.36;;;5.60;65.30
24440;BME280;12618;54.386;18.394;2023-04-02T12:57:29;100349.60;;;5.67;65.91
24440;BME280;12618;54.386;18.394;2023-04-02T13:03:15;100359.48;;;5.81;64.11
24440;BME280;12618;54.386;18.394;2023-04-02T13:05:55;100364.11;;;5.85;64.83
24440;BME280;12618;54.386;18.394;2023-04-02T13:08:30;100369.89;;;5.84;64.75
24440;BME280;12618;54.386;18.394;2023-04-02T13:11:04;100369.14;;;5.76;63.28
24440;BME280;12618;54.386;18.394;2023-04-02T13:13:38;100367.76;;;5.76;64.65
24440;BME280;12618;54.386;18.394;2023-04-02T13:18:45;100372.05;;;5.80;63.93
24440;BME280;12618;54.386;18.394;2023-04-02T13:23:49;100375.58;;;5.79;63.17
24440;BME280;12618;54.386;18.394;2023-04-02T13:26:23;100377.34;;;5.77;62.61
24440;BME280;12618;54.386;18.394;2023-04-02T13:29:00;100385.98;;;5.73;62.62
24440;BME280;12618;54.386;18.394;2023-04-02T13:31:32;100384.82;;;5.69;62.08
24440;BME280;12618;54.386;18.394;2023-04-02T13:34:04;100393.80;;;5.74;61.84
24440;BME280;12618;54.386;18.394;2023-04-02T13:36:36;100399.10;;;5.72;62.02
24440;BME280;12618;54.386;18.394;2023-04-02T13:39:08;100393.85;;;5.72;62.62
24440;BME280;12618;54.386;18.394;2023-04-02T13:41:43;100403.97;;;5.72;61.82
24440;BME280;12618;54.386;18.394;2023-04-02T13:46:50;100404.20;;;5.69;61.75
24440;BME280;12618;54.386;18.394;2023-04-02T13:49:22;100405.07;;;5.70;61.66
24440;BME280;12618;54.386;18.394;2023-04-02T13:51:58;100411.87;;;5.70;62.03
24440;BME280;12618;54.386;18.394;2023-04-02T13:54:50;100407.10;;;5.63;61.27
24440;BME280;12618;54.386;18.394;2023-04-02T13:57:23;100423.62;;;5.56;62.30
24440;BME280;12618;54.386;18.394;2023-04-02T13:59:55;100425.02;;;5.56;62.69
24440;BME280;12618;54.386;18.394;2023-04-02T14:02:27;100428.86;;;5.56;62.34
24440;BME280;12618;54.386;18.394;2023-04-02T14:07:58;100431.28;;;5.58;60.48
24440;BME280;12618;54.386;18.394;2023-04-02T14:42:46;100476.63;;;5.25;59.91
24440;BME280;12618;54.386;18.394;2023-04-02T14:55:04;100484.23;;;5.19;62.87
24440;BME280;12618;54.386;18.394;2023-04-02T14:57:40;100498.88;;;5.18;62.42
24440;BME280;12618;54.386;18.394;2023-04-02T15:00:26;100493.50;;;5.16;62.91
24440;BME280;12618;54.386;18.394;2023-04-02T15:06:04;100496.58;;;5.32;64.21
24440;BME280;12618;54.386;18.394;2023-04-02T15:08:46;100502.60;;;5.27;64.79
24440;BME280;12618;54.386;18.394;2023-04-02T15:11:40;100510.95;;;5.29;64.35
24440;BME280;12618;54.386;18.394;2023-04-02T15:14:19;100512.92;;;5.25;64.22
24440;BME280;12618;54.386;18.394;2023-04-02T15:16:52;100516.05;;;5.11;64.61
24440;BME280;12618;54.386;18.394;2023-04-02T15:19:24;100515.60;;;5.07;65.04
24440;BME280;12618;54.386;18.394;2023-04-02T15:22:26;100517.02;;;5.04;64.99
24440;BME280;12618;54.386;18.394;2023-04-02T15:30:37;100528.45;;;4.97;65.46
24440;BME280;12618;54.386;18.394;2023-04-02T15:39:06;100532.83;;;4.80;67.12
24440;BME280;12618;54.386;18.394;2023-04-02T15:44:55;100540.88;;;4.62;68.47
24440;BME280;12618;54.386;18.394;2023-04-02T15:50:35;100546.01;;;4.71;69.13
24440;BME280;12618;54.386;18.394;2023-04-02T15:53:34;100553.98;;;4.74;69.50
24440;BME280;12618;54.386;18.394;2023-04-02T15:56:21;100554.45;;;4.64;69.61
24440;BME280;12618;54.386;18.394;2023-04-02T15:59:02;100563.02;;;4.43;69.84
24440;BME280;12618;54.386;18.394;2023-04-02T16:01:58;100571.90;;;4.25;69.85
24440;BME280;12618;54.386;18.394;2023-04-02T16:04:44;100570.48;;;4.06;70.15
24440;BME280;12618;54.386;18.394;2023-04-02T16:07:44;100571.80;;;3.92;70.53
24440;BME280;12618;54.386;18.394;2023-04-02T16:10:21;100576.41;;;3.79;71.32
24440;BME280;12618;54.386;18.394;2023-04-02T16:13:27;100577.34;;;3.70;72.36
24440;BME280;12618;54.386;18.394;2023-04-02T16:16:02;100585.75;;;3.62;72.73
24440;BME280;12618;54.386;18.394;2023-04-02T16:18:55;100586.98;;;3.57;73.13
24440;BME280;12618;54.386;18.394;2023-04-02T16:21:32;100591.55;;;3.51;72.75
24440;BME280;12618;54.386;18.394;2023-04-02T16:24:12;100599.92;;;3.46;75.05
24440;BME280;12618;54.386;18.394;2023-04-02T16:29:54;100601.58;;;3.26;76.71
24440;BME280;12618;54.386;18.394;2023-04-02T16:53:30;100627.59;;;2.90;78.74
24440;BME280;12618;54.386;18.394;2023-04-02T16:56:34;100634.21;;;2.80;79.24
24440;BME280;12618;54.386;18.394;2023-04-02T17:05:50;100640.68;;;2.58;80.44
24440;BME280;12618;54.386;18.394;2023-04-02T17:08:24;100641.55;;;2.51;80.26
24440;BME280;12618;54.386;18.394;2023-04-02T17:11:04;100652.49;;;2.49;80.40
24440;BME280;12618;54.386;18.394;2023-04-02T17:13:50;100651.09;;;2.46;80.20
24440;BME280;12618;54.386;18.394;2023-04-02T17:16:31;100650.04;;;2.43;80.23
24440;BME280;12618;54.386;18.394;2023-04-02T17:19:12;100657.19;;;2.40;81.16
24440;BME280;12618;54.386;18.394;2023-04-02T17:21:46;100662.04;;;2.35;80.97
24440;BME280;12618;54.386;18.394;2023-04-02T17:24:25;100664.82;;;2.32;80.98
24440;BME280;12618;54.386;18.394;2023-04-02T17:30:25;100671.77;;;2.27;80.05
24440;BME280;12618;54.386;18.394;2023-04-02T17:33:06;100671.58;;;2.26;80.24
24440;BME280;12618;54.386;18.394;2023-04-02T17:43:56;100683.88;;;2.11;80.65
24440;BME280;12618;54.386;18.394;2023-04-02T17:46:50;100687.19;;;2.08;80.97
24440;BME280;12618;54.386;18.394;2023-04-02T18:00:50;100702.81;;;2.07;79.35
24440;BME280;12618;54.386;18.394;2023-04-02T18:06:26;100698.64;;;2.06;78.86
24440;BME280;12618;54.386;18.394;2023-04-02T18:12:10;100706.42;;;1.97;78.68
24440;BME280;12618;54.386;18.394;2023-04-02T18:17:51;100711.98;;;1.97;78.68
24440;BME280;12618;54.386;18.394;2023-04-02T18:20:41;100712.50;;;1.96;78.93
24440;BME280;12618;54.386;18.394;2023-04-02T18:26:31;100724.45;;;1.90;79.68
24440;BME280;12618;54.386;18.394;2023-04-02T18:35:24;100733.29;;;1.88;80.30
24440;BME280;12618;54.386;18.394;2023-04-02T18:38:03;100738.66;;;1.87;80.42
24440;BME280;12618;54.386;18.394;2023-04-02T18:46:51;100744.52;;;1.76;81.73
24440;BME280;12618;54.386;18.394;2023-04-02T18:49:31;100750.08;;;1.76;82.11
24440;BME280;12618;54.386;18.394;2023-04-02T18:52:11;100760.66;;;1.74;82.50
24440;BME280;12618;54.386;18.394;2023-04-02T18:55:04;100753.36;;;1.73;82.92